sensor_id;sensor_type;location;lat;lon;timestamp;temperature;humidity
60723;DHT22;46574;52.818;6.516;2022-12-29T00:01:56;10.60;99.90
60723;DHT22;46574;52.818;6.516;2022-12-29T00:04:22;10.70;99.90
60723;DHT22;46574;52.818;6.516;2022-12-29T00:06:48;10.70;99.90
60723;DHT22;46574;52.818;6.516;2022-12-29T00:09:15;10.70;99.90
60723;DHT22;46574;52.818;6.516;2022-12-29T00:11:41;10.60;99.90
60723;DHT22;46574;52.818;6.516;2022-12-29T00:14:09;10.60;99.90
60723;DHT22;46574;52.818;6.516;2022-12-29T00:16:54;10.60;99.90
60723;DHT22;46574;52.818;6.516;2022-12-29T00:19:20;10.70;99.90
60723;DHT22;46574;52.818;6.516;2022-12-29T00:22:04;10.70;99.90
60723;DHT22;46574;52.818;6.516;2022-12-29T00:24:48;10.70;99.90
60723;DHT22;46574;52.818;6.516;2022-12-29T00:27:32;10.70;99.90
60723;DHT22;46574;52.818;6.516;2022-12-29T00:30:22;10.70;99.90
60723;DHT22;46574;52.818;6.516;2022-12-29T00:33:18;10.70;99.90
60723;DHT22;46574;52.818;6.516;2022-12-29T00:36:24;10.70;99.90
60723;DHT22;46574;52.818;6.516;2022-12-29T00:39:04;10.70;99.90
60723;DHT22;46574;52.818;6.516;2022-12-29T00:41:49;10.80;99.90
60723;DHT22;46574;52.818;6.516;2022-12-29T00:44:33;10.80;99.90
60723;DHT22;46574;52.818;6.516;2022-12-29T00:46:59;10.80;99.90
60723;DHT22;46574;52.818;6.516;2022-12-29T00:49:29;10.80;99.90
60723;DHT22;46574;52.818;6.516;2022-12-29T00:52:11;10.80;99.90
60723;DHT22;46574;52.818;6.516;2022-12-29T00:54:38;10.80;99.90
60723;DHT22;46574;52.818;6.516;2022-12-29T00:57:06;10.90;99.90
60723;DHT22;46574;52.818;6.516;2022-12-29T00:59:32;10.80;99.90
60723;DHT22;46574;52.818;6.516;2022-12-29T01:01:59;10.80;99.90
60723;DHT22;46574;52.818;6.516;2022-12-29T01:04:25;10.90;99.90
60723;DHT22;46574;52.818;6.516;2022-12-29T01:06:52;10.80;99.90
60723;DHT22;46574;52.818;6.516;2022-12-29T01:09:18;10.90;99.90
60723;DHT22;46574;52.818;6.516;2022-12-29T01:12:04;10.90;99.90
60723;DHT22;46574;52.818;6.516;2022-12-29T01:14:30;10.90;99.90
60723;DHT22;46574;52.818;6.516;2022-12-29T01:16:56;10.90;99.90
60723;DHT22;46574;52.818;6.516;2022-12-29T01:19:22;10.90;99.90
60723;DHT22;46574;52.818;6.516;2022-12-29T01:21:48;11.00;99.90
60723;DHT22;46574;52.818;6.516;2022-12-29T01:24:18;11.00;99.90
60723;DHT22;46574;52.818;6.516;2022-12-29T01:26:44;11.00;99.90
60723;DHT22;46574;52.818;6.516;2022-12-29T01:29:10;11.00;99.90
60723;DHT22;46574;52.818;6.516;2022-12-29T01:31:36;11.00;99.90
60723;DHT22;46574;52.818;6.516;2022-12-29T01:34:02;11.00;99.90
60723;DHT22;46574;52.818;6.516;2022-12-29T01:36:28;11.10;99.90
60723;DHT22;46574;52.818;6.516;2022-12-29T01:38:54;11.10;99.90
60723;DHT22;46574;52.818;6.516;2022-12-29T01:41:20;11.10;99.90
60723;DHT22;46574;52.818;6.516;2022-12-29T01:46:33;11.10;99.90
60723;DHT22;46574;52.818;6.516;2022-12-29T01:49:12;11.10;99.90
60723;DHT22;46574;52.818;6.516;2022-12-29T01:51:42;11.10;99.90
60723;DHT22;46574;52.818;6.516;2022-12-29T01:54:37;11.10;99.90
60723;DHT22;46574;52.818;6.516;2022-12-29T01:57:08;11.10;99.90
60723;DHT22;46574;52.818;6.516;2022-12-29T01:59:43;11.10;99.90
60723;DHT22;46574;52.818;6.516;2022-12-29T02:02:11;11.20;99.90
60723;DHT22;46574;52.818;6.516;2022-12-29T02:04:40;11.20;99.90
60723;DHT22;46574;52.818;6.516;2022-12-29T02:07:17;11.20;99.90
60723;DHT22;46574;52.818;6.516;2022-12-29T02:09:45;11.20;99.90
60723;DHT22;46574;52.818;6.516;2022-12-29T02:12:12;11.30;99.90
60723;DHT22;46574;52.818;6.516;2022-12-29T02:14:38;11.30;99.90
60723;DHT22;46574;52.818;6.516;2022-12-29T02:22:55;11.30;99.90
60723;DHT22;46574;52.818;6.516;2022-12-29T02:25:39;11.30;99.90
60723;DHT22;46574;52.818;6.516;2022-12-29T02:31:17;11.30;99.90
60723;DHT22;46574;52.818;6.516;2022-12-29T02:39:09;11.20;99.90
60723;DHT22;46574;52.818;6.516;2022-12-29T02:52:54;11.00;99.90
60723;DHT22;46574;52.818;6.516;2022-12-29T02:55:21;11.00;99.90
60723;DHT22;46574;52.818;6.516;2022-12-29T02:57:47;11.00;99.90
60723;DHT22;46574;52.818;6.516;2022-12-29T03:00:15;11.00;99.90
60723;DHT22;46574;52.818;6.516;2022-12-29T03:05:59;11.00;99.90
60723;DHT22;46574;52.818;6.516;2022-12-29T03:11:03;11.00;99.90
60723;DHT22;46574;52.818;6.516;2022-12-29T03:13:43;11.00;99.90
60723;DHT22;46574;52.818;6.516;2022-12-29T03:19:39;10.90;99.90
60723;DHT22;46574;52.818;6.516;2022-12-29T03:22:14;10.90;99.90
60723;DHT22;46574;52.818;6.516;2022-12-29T03:27:58;10.90;99.90
60723;DHT22;46574;52.818;6.516;2022-12-29T03:30:23;10.90;99.90
60723;DHT22;46574;52.818;6.516;2022-12-29T03:32:53;11.00;99.90
60723;DHT22;46574;52.818;6.516;2022-12-29T03:35:22;11.00;99.90
60723;DHT22;46574;52.818;6.516;2022-12-29T03:37:58;10.90;99.90
60723;DHT22;46574;52.818;6.516;2022-12-29T03:40:26;11.00;99.90
60723;DHT22;46574;52.818;6.516;2022-12-29T03:42:53;11.00;99.90
60723;DHT22;46574;52.818;6.516;2022-12-29T03:45:19;10.90;99.90
60723;DHT22;46574;52.818;6.516;2022-12-29T03:47:45;11.00;99.90
60723;DHT22;46574;52.818;6.516;2022-12-29T03:50:12;11.00;99.90
60723;DHT22;46574;52.818;6.516;2022-12-29T03:52:37;11.00;99.90
60723;DHT22;46574;52.818;6.516;2022-12-29T03:55:03;11.00;99.90
60723;DHT22;46574;52.818;6.516;2022-12-29T03:57:29;11.00;99.90
60723;DHT22;46574;52.818;6.516;2022-12-29T03:59:55;11.00;99.90
60723;DHT22;46574;52.818;6.516;2022-12-29T04:02:20;11.00;99.90
60723;DHT22;46574;52.818;6.516;2022-12-29T04:04:46;10.90;99.90
60723;DHT22;46574;52.818;6.516;2022-12-29T04:07:12;10.90;99.90
60723;DHT22;46574;52.818;6.516;2022-12-29T04:09:37;10.90;99.90
60723;DHT22;46574;52.818;6.516;2022-12-29T04:12:03;10.80;99.90
60723;DHT22;46574;52.818;6.516;2022-12-29T04:14:29;10.80;99.90
60723;DHT22;46574;52.818;6.516;2022-12-29T04:16:55;10.70;99.90
60723;DHT22;46574;52.818;6.516;2022-12-29T04:19:21;10.70;99.90
60723;DHT22;46574;52.818;6.516;2022-12-29T04:21:46;10.70;99.90
60723;DHT22;46574;52.818;6.516;2022-12-29T04:24:12;10.70;99.90
60723;DHT22;46574;52.818;6.516;2022-12-29T04:26:38;10.70;99.90
60723;DHT22;46574;52.818;6.516;2022-12-29T04:29:04;10.60;99.90
60723;DHT22;46574;52.818;6.516;2022-12-29T04:31:30;10.60;99.90
60723;DHT22;46574;52.818;6.516;2022-12-29T04:33:55;10.60;99.90
60723;DHT22;46574;52.818;6.516;2022-12-29T04:36:23;10.50;99.90
60723;DHT22;46574;52.818;6.516;2022-12-29T04:38:48;10.50;99.90
60723;DHT22;46574;52.818;6.516;2022-12-29T04:41:14;10.50;99.90
60723;DHT22;46574;52.818;6.516;2022-12-29T04:43:40;10.40;99.90
60723;DHT22;46574;52.818;6.516;2022-12-29T04:46:06;10.40;99.90
60723;DHT22;46574;52.818;6.516;2022-12-29T04:48:32;10.40;99.90
60723;DHT22;46574;52.818;6.516;2022-12-29T04:50:57;10.40;99.90
60723;DHT22;46574;52.818;6.516;2022-12-29T04:53:23;10.40;99.90
60723;DHT22;46574;52.818;6.516;2022-12-29T04:55:52;10.40;99.90
60723;DHT22;46574;52.818;6.516;2022-12-29T04:58:19;10.40;99.90
60723;DHT22;46574;52.818;6.516;2022-12-29T05:00:45;10.40;99.90
60723;DHT22;46574;52.818;6.516;2022-12-29T05:03:11;10.40;99.90
60723;DHT22;46574;52.818;6.516;2022-12-29T05:05:36;10.40;99.90
60723;DHT22;46574;52.818;6.516;2022-12-29T05:08:02;10.40;99.90
60723;DHT22;46574;52.818;6.516;2022-12-29T05:10:28;10.40;99.90
60723;DHT22;46574;52.818;6.516;2022-12-29T05:12:54;10.30;99.90
60723;DHT22;46574;52.818;6.516;2022-12-29T05:15:20;10.30;99.90
60723;DHT22;46574;52.818;6.516;2022-12-29T05:17:45;10.30;99.90
60723;DHT22;46574;52.818;6.516;2022-12-29T05:20:11;10.30;99.90
60723;DHT22;46574;52.818;6.516;2022-12-29T05:22:37;10.30;99.90
60723;DHT22;46574;52.818;6.516;2022-12-29T05:25:03;10.30;99.90
60723;DHT22;46574;52.818;6.516;2022-12-29T05:27:29;10.30;99.90
60723;DHT22;46574;52.818;6.516;2022-12-29T05:29:54;10.30;99.90
60723;DHT22;46574;52.818;6.516;2022-12-29T05:32:20;10.30;99.90
60723;DHT22;46574;52.818;6.516;2022-12-29T05:34:46;10.30;99.90
60723;DHT22;46574;52.818;6.516;2022-12-29T05:37:12;10.30;99.90
60723;DHT22;46574;52.818;6.516;2022-12-29T05:39:38;10.30;99.90
60723;DHT22;46574;52.818;6.516;2022-12-29T05:42:03;10.30;99.90
60723;DHT22;46574;52.818;6.516;2022-12-29T05:44:29;10.30;99.90
60723;DHT22;46574;52.818;6.516;2022-12-29T05:46:54;10.30;99.90
60723;DHT22;46574;52.818;6.516;2022-12-29T05:49:23;10.30;99.90
60723;DHT22;46574;52.818;6.516;2022-12-29T05:51:49;10.30;99.90
60723;DHT22;46574;52.818;6.516;2022-12-29T05:54:14;10.30;99.90
60723;DHT22;46574;52.818;6.516;2022-12-29T05:56:40;10.30;99.90
60723;DHT22;46574;52.818;6.516;2022-12-29T05:59:06;10.30;99.90
60723;DHT22;46574;52.818;6.516;2022-12-29T06:01:32;10.30;99.90
60723;DHT22;46574;52.818;6.516;2022-12-29T06:03:59;10.30;99.90
60723;DHT22;46574;52.818;6.516;2022-12-29T06:06:25;10.30;99.90
60723;DHT22;46574;52.818;6.516;2022-12-29T06:08:51;10.30;99.90
60723;DHT22;46574;52.818;6.516;2022-12-29T06:11:16;10.30;99.90
60723;DHT22;46574;52.818;6.516;2022-12-29T06:13:42;10.30;99.90
60723;DHT22;46574;52.818;6.516;2022-12-29T06:16:08;10.30;99.90
60723;DHT22;46574;52.818;6.516;2022-12-29T06:18:33;10.30;99.90
60723;DHT22;46574;52.818;6.516;2022-12-29T06:21:00;10.30;99.90
60723;DHT22;46574;52.818;6.516;2022-12-29T06:23:27;10.30;99.90
60723;DHT22;46574;52.818;6.516;2022-12-29T06:25:52;10.30;99.90
60723;DHT22;46574;52.818;6.516;2022-12-29T06:28:18;10.30;99.90
60723;DHT22;46574;52.818;6.516;2022-12-29T06:30:45;10.30;99.90
60723;DHT22;46574;52.818;6.516;2022-12-29T06:33:11;10.30;99.90
60723;DHT22;46574;52.818;6.516;2022-12-29T06:35:37;10.30;99.90
60723;DHT22;46574;52.818;6.516;2022-12-29T06:38:04;10.40;99.90
60723;DHT22;46574;52.818;6.516;2022-12-29T06:40:30;10.40;99.90
60723;DHT22;46574;52.818;6.516;2022-12-29T06:42:55;10.40;99.90
60723;DHT22;46574;52.818;6.516;2022-12-29T06:45:21;10.40;99.90
60723;DHT22;46574;52.818;6.516;2022-12-29T06:47:47;10.40;99.90
60723;DHT22;46574;52.818;6.516;2022-12-29T06:50:12;10.40;99.90
60723;DHT22;46574;52.818;6.516;2022-12-29T06:52:38;10.40;99.90
60723;DHT22;46574;52.818;6.516;2022-12-29T06:55:04;10.40;99.90
60723;DHT22;46574;52.818;6.516;2022-12-29T06:57:30;10.40;99.90
60723;DHT22;46574;52.818;6.516;2022-12-29T06:59:55;10.40;99.90
60723;DHT22;46574;52.818;6.516;2022-12-29T07:02:22;10.50;99.90
60723;DHT22;46574;52.818;6.516;2022-12-29T07:04:53;10.50;99.90
60723;DHT22;46574;52.818;6.516;2022-12-29T07:07:20;10.50;99.90
60723;DHT22;46574;52.818;6.516;2022-12-29T07:09:46;10.50;99.90
60723;DHT22;46574;52.818;6.516;2022-12-29T07:12:11;10.50;99.90
60723;DHT22;46574;52.818;6.516;2022-12-29T07:14:37;10.50;99.90
60723;DHT22;46574;52.818;6.516;2022-12-29T07:17:03;10.40;99.90
60723;DHT22;46574;52.818;6.516;2022-12-29T07:19:32;10.40;99.90
60723;DHT22;46574;52.818;6.516;2022-12-29T07:21:57;10.40;99.90
60723;DHT22;46574;52.818;6.516;2022-12-29T07:24:23;10.40;99.90
60723;DHT22;46574;52.818;6.516;2022-12-29T07:26:51;10.40;99.90
60723;DHT22;46574;52.818;6.516;2022-12-29T07:29:17;10.40;99.90
60723;DHT22;46574;52.818;6.516;2022-12-29T07:31:42;10.40;99.90
60723;DHT22;46574;52.818;6.516;2022-12-29T07:34:09;10.40;99.90
60723;DHT22;46574;52.818;6.516;2022-12-29T07:36:34;10.30;99.90
60723;DHT22;46574;52.818;6.516;2022-12-29T07:39:00;10.30;99.90
60723;DHT22;46574;52.818;6.516;2022-12-29T07:41:26;10.40;99.90
60723;DHT22;46574;52.818;6.516;2022-12-29T07:43:51;10.30;99.90
60723;DHT22;46574;52.818;6.516;2022-12-29T07:46:17;10.30;99.90
60723;DHT22;46574;52.818;6.516;2022-12-29T07:48:43;10.30;99.90
60723;DHT22;46574;52.818;6.516;2022-12-29T07:51:08;10.30;99.90
60723;DHT22;46574;52.818;6.516;2022-12-29T07:53:35;10.30;99.90
60723;DHT22;46574;52.818;6.516;2022-12-29T07:56:01;10.30;99.90
60723;DHT22;46574;52.818;6.516;2022-12-29T07:58:26;10.30;99.90
60723;DHT22;46574;52.818;6.516;2022-12-29T08:00:56;10.30;99.90
60723;DHT22;46574;52.818;6.516;2022-12-29T08:03:22;10.30;99.90
60723;DHT22;46574;52.818;6.516;2022-12-29T08:05:48;10.20;99.90
60723;DHT22;46574;52.818;6.516;2022-12-29T08:08:14;10.20;99.90
60723;DHT22;46574;52.818;6.516;2022-12-29T08:10:40;10.20;99.90
60723;DHT22;46574;52.818;6.516;2022-12-29T08:13:05;10.20;99.90
60723;DHT22;46574;52.818;6.516;2022-12-29T08:15:31;10.20;99.90
60723;DHT22;46574;52.818;6.516;2022-12-29T08:17:56;10.30;99.90
60723;DHT22;46574;52.818;6.516;2022-12-29T08:20:22;10.30;99.90
60723;DHT22;46574;52.818;6.516;2022-12-29T08:22:48;10.30;99.90
60723;DHT22;46574;52.818;6.516;2022-12-29T08:25:13;10.30;99.90
60723;DHT22;46574;52.818;6.516;2022-12-29T08:27:40;10.30;99.90
60723;DHT22;46574;52.818;6.516;2022-12-29T08:30:08;10.30;99.90
60723;DHT22;46574;52.818;6.516;2022-12-29T08:32:34;10.30;99.90
60723;DHT22;46574;52.818;6.516;2022-12-29T08:34:59;10.30;99.90
60723;DHT22;46574;52.818;6.516;2022-12-29T08:37:25;10.30;99.90
60723;DHT22;46574;52.818;6.516;2022-12-29T08:39:51;10.30;99.90
60723;DHT22;46574;52.818;6.516;2022-12-29T08:42:17;10.30;99.90
60723;DHT22;46574;52.818;6.516;2022-12-29T08:44:42;10.30;99.90
60723;DHT22;46574;52.818;6.516;2022-12-29T08:47:10;10.30;99.90
60723;DHT22;46574;52.818;6.516;2022-12-29T08:49:36;10.30;99.90
60723;DHT22;46574;52.818;6.516;2022-12-29T08:52:01;10.40;99.90
60723;DHT22;46574;52.818;6.516;2022-12-29T08:54:27;10.40;99.90
60723;DHT22;46574;52.818;6.516;2022-12-29T08:56:53;10.40;99.90
60723;DHT22;46574;52.818;6.516;2022-12-29T08:59:19;10.40;99.90
60723;DHT22;46574;52.818;6.516;2022-12-29T09:01:44;10.40;99.90
60723;DHT22;46574;52.818;6.516;2022-12-29T09:04:12;10.40;99.90
60723;DHT22;46574;52.818;6.516;2022-12-29T09:06:38;10.40;99.90
60723;DHT22;46574;52.818;6.516;2022-12-29T09:09:04;10.40;99.90
60723;DHT22;46574;52.818;6.516;2022-12-29T09:11:32;10.40;99.90
60723;DHT22;46574;52.818;6.516;2022-12-29T09:13:58;10.30;99.90
60723;DHT22;46574;52.818;6.516;2022-12-29T09:16:24;10.30;99.90
60723;DHT22;46574;52.818;6.516;2022-12-29T09:18:50;10.30;99.90
60723;DHT22;46574;52.818;6.516;2022-12-29T09:21:16;10.20;99.90
60723;DHT22;46574;52.818;6.516;2022-12-29T09:23:41;10.20;99.90
60723;DHT22;46574;52.818;6.516;2022-12-29T09:26:08;10.10;99.90
60723;DHT22;46574;52.818;6.516;2022-12-29T09:28:34;10.10;99.90
60723;DHT22;46574;52.818;6.516;2022-12-29T09:31:00;10.10;99.90
60723;DHT22;46574;52.818;6.516;2022-12-29T09:33:26;10.10;99.90
60723;DHT22;46574;52.818;6.516;2022-12-29T09:35:54;10.10;99.90
60723;DHT22;46574;52.818;6.516;2022-12-29T09:38:20;10.10;99.90
60723;DHT22;46574;52.818;6.516;2022-12-29T09:40:51;10.10;99.90
60723;DHT22;46574;52.818;6.516;2022-12-29T09:43:56;10.10;99.90
60723;DHT22;46574;52.818;6.516;2022-12-29T09:46:29;10.00;99.90
60723;DHT22;46574;52.818;6.516;2022-12-29T09:51:48;10.00;99.90
60723;DHT22;46574;52.818;6.516;2022-12-29T09:56:53;9.90;99.90
60723;DHT22;46574;52.818;6.516;2022-12-29T09:59:21;9.90;99.90
60723;DHT22;46574;52.818;6.516;2022-12-29T10:02:01;9.90;99.90
60723;DHT22;46574;52.818;6.516;2022-12-29T10:04:29;9.90;99.90
60723;DHT22;46574;52.818;6.516;2022-12-29T10:07:09;9.80;99.90
60723;DHT22;46574;52.818;6.516;2022-12-29T10:09:55;9.90;99.90
60723;DHT22;46574;52.818;6.516;2022-12-29T10:17:55;9.80;99.90
60723;DHT22;46574;52.818;6.516;2022-12-29T10:20:30;9.80;99.90
60723;DHT22;46574;52.818;6.516;2022-12-29T10:23:29;9.80;99.90
60723;DHT22;46574;52.818;6.516;2022-12-29T10:25:58;9.80;99.90
60723;DHT22;46574;52.818;6.516;2022-12-29T10:28:32;9.90;99.90
60723;DHT22;46574;52.818;6.516;2022-12-29T10:31:00;9.80;99.90
60723;DHT22;46574;52.818;6.516;2022-12-29T10:33:34;9.90;99.90
60723;DHT22;46574;52.818;6.516;2022-12-29T10:36:11;9.80;99.90
60723;DHT22;46574;52.818;6.516;2022-12-29T10:41:23;9.80;99.90
60723;DHT22;46574;52.818;6.516;2022-12-29T10:43:52;9.70;99.90
60723;DHT22;46574;52.818;6.516;2022-12-29T10:46:23;9.70;99.90
60723;DHT22;46574;52.818;6.516;2022-12-29T10:48:50;9.70;99.90
60723;DHT22;46574;52.818;6.516;2022-12-29T10:51:28;9.70;99.90
60723;DHT22;46574;52.818;6.516;2022-12-29T10:56:39;9.70;99.90
60723;DHT22;46574;52.818;6.516;2022-12-29T10:59:35;9.60;99.90
60723;DHT22;46574;52.818;6.516;2022-12-29T11:07:22;9.80;99.90
60723;DHT22;46574;52.818;6.516;2022-12-29T11:09:48;9.80;99.90
60723;DHT22;46574;52.818;6.516;2022-12-29T11:14:44;9.80;99.90
60723;DHT22;46574;52.818;6.516;2022-12-29T11:17:15;9.80;99.90
60723;DHT22;46574;52.818;6.516;2022-12-29T11:19:42;9.80;99.90
60723;DHT22;46574;52.818;6.516;2022-12-29T11:22:24;9.80;99.90
60723;DHT22;46574;52.818;6.516;2022-12-29T11:24:52;9.80;99.90
60723;DHT22;46574;52.818;6.516;2022-12-29T11:27:21;9.80;99.90
60723;DHT22;46574;52.818;6.516;2022-12-29T11:29:51;9.80;99.90
60723;DHT22;46574;52.818;6.516;2022-12-29T11:32:23;9.80;99.90
60723;DHT22;46574;52.818;6.516;2022-12-29T11:34:50;9.90;99.90
60723;DHT22;46574;52.818;6.516;2022-12-29T11:40:06;10.00;99.90
60723;DHT22;46574;52.818;6.516;2022-12-29T11:42:38;10.00;99.90
60723;DHT22;46574;52.818;6.516;2022-12-29T11:45:18;10.00;99.90
60723;DHT22;46574;52.818;6.516;2022-12-29T11:47:46;10.00;99.90
60723;DHT22;46574;52.818;6.516;2022-12-29T11:50:31;10.00;99.90
60723;DHT22;46574;52.818;6.516;2022-12-29T11:55:26;10.10;99.90
60723;DHT22;46574;52.818;6.516;2022-12-29T11:57:54;10.10;99.90
60723;DHT22;46574;52.818;6.516;2022-12-29T12:00:24;10.10;99.90
60723;DHT22;46574;52.818;6.516;2022-12-29T12:02:58;10.00;99.90
60723;DHT22;46574;52.818;6.516;2022-12-29T12:08:37;10.10;99.90
60723;DHT22;46574;52.818;6.516;2022-12-29T12:11:19;10.10;99.90
60723;DHT22;46574;52.818;6.516;2022-12-29T12:16:21;10.00;99.90
60723;DHT22;46574;52.818;6.516;2022-12-29T12:18:55;9.90;99.90
60723;DHT22;46574;52.818;6.516;2022-12-29T12:21:38;9.90;99.90
60723;DHT22;46574;52.818;6.516;2022-12-29T12:29:40;9.90;99.90
60723;DHT22;46574;52.818;6.516;2022-12-29T12:32:20;10.00;99.90
60723;DHT22;46574;52.818;6.516;2022-12-29T12:34:48;9.90;99.90
60723;DHT22;46574;52.818;6.516;2022-12-29T12:37:27;10.00;99.90
60723;DHT22;46574;52.818;6.516;2022-12-29T12:54:01;10.30;99.90
60723;DHT22;46574;52.818;6.516;2022-12-29T12:59:34;10.30;99.90
60723;DHT22;46574;52.818;6.516;2022-12-29T13:02:20;10.20;99.90
60723;DHT22;46574;52.818;6.516;2022-12-29T13:04:59;10.10;99.90
60723;DHT22;46574;52.818;6.516;2022-12-29T13:07:59;10.10;99.90
60723;DHT22;46574;52.818;6.516;2022-12-29T13:16:34;10.10;99.90
60723;DHT22;46574;52.818;6.516;2022-12-29T13:19:23;10.00;99.90
60723;DHT22;46574;52.818;6.516;2022-12-29T13:22:01;10.00;99.90
60723;DHT22;46574;52.818;6.516;2022-12-29T13:24:40;10.00;99.90
60723;DHT22;46574;52.818;6.516;2022-12-29T13:30:17;9.90;99.90
60723;DHT22;46574;52.818;6.516;2022-12-29T13:36:00;10.00;99.90
60723;DHT22;46574;52.818;6.516;2022-12-29T13:38:46;10.10;99.90
60723;DHT22;46574;52.818;6.516;2022-12-29T13:44:17;10.00;99.90
60723;DHT22;46574;52.818;6.516;2022-12-29T13:46:44;10.00;99.90
60723;DHT22;46574;52.818;6.516;2022-12-29T13:49:20;10.00;99.90
60723;DHT22;46574;52.818;6.516;2022-12-29T13:51:55;10.00;99.90
60723;DHT22;46574;52.818;6.516;2022-12-29T13:54:39;9.90;99.90
60723;DHT22;46574;52.818;6.516;2022-12-29T13:57:12;9.90;99.90
60723;DHT22;46574;52.818;6.516;2022-12-29T14:07:56;9.80;99.90
60723;DHT22;46574;52.818;6.516;2022-12-29T14:13:04;9.80;99.90
60723;DHT22;46574;52.818;6.516;2022-12-29T14:15:31;9.70;99.90
60723;DHT22;46574;52.818;6.516;2022-12-29T14:18:13;9.70;99.90
60723;DHT22;46574;52.818;6.516;2022-12-29T14:20:54;9.70;99.90
60723;DHT22;46574;52.818;6.516;2022-12-29T14:23:29;9.70;99.90
60723;DHT22;46574;52.818;6.516;2022-12-29T14:28:41;9.70;99.90
60723;DHT22;46574;52.818;6.516;2022-12-29T14:39:32;9.70;99.90
60723;DHT22;46574;52.818;6.516;2022-12-29T14:42:12;9.60;99.90
60723;DHT22;46574;52.818;6.516;2022-12-29T14:44:50;9.60;99.90
60723;DHT22;46574;52.818;6.516;2022-12-29T14:47:25;9.60;99.90
60723;DHT22;46574;52.818;6.516;2022-12-29T14:49:54;9.60;99.90
60723;DHT22;46574;52.818;6.516;2022-12-29T14:52:24;9.60;99.90
60723;DHT22;46574;52.818;6.516;2022-12-29T15:00:35;9.60;99.90
60723;DHT22;46574;52.818;6.516;2022-12-29T15:03:22;9.50;99.90
60723;DHT22;46574;52.818;6.516;2022-12-29T15:08:28;9.40;99.90
60723;DHT22;46574;52.818;6.516;2022-12-29T15:11:06;9.50;99.90
60723;DHT22;46574;52.818;6.516;2022-12-29T15:13:37;9.50;99.90
60723;DHT22;46574;52.818;6.516;2022-12-29T15:16:04;9.40;99.90
60723;DHT22;46574;52.818;6.516;2022-12-29T15:18:31;9.40;99.90
60723;DHT22;46574;52.818;6.516;2022-12-29T15:21:00;9.30;99.90
60723;DHT22;46574;52.818;6.516;2022-12-29T15:23:28;9.30;99.90
60723;DHT22;46574;52.818;6.516;2022-12-29T15:26:06;9.30;99.90
60723;DHT22;46574;52.818;6.516;2022-12-29T15:28:46;9.30;99.90
60723;DHT22;46574;52.818;6.516;2022-12-29T15:31:15;9.20;99.90
60723;DHT22;46574;52.818;6.516;2022-12-29T15:33:44;9.20;99.90
60723;DHT22;46574;52.818;6.516;2022-12-29T15:36:12;9.20;99.90
60723;DHT22;46574;52.818;6.516;2022-12-29T15:38:39;9.10;99.90
60723;DHT22;46574;52.818;6.516;2022-12-29T15:46:21;9.10;99.90
60723;DHT22;46574;52.818;6.516;2022-12-29T15:48:46;9.00;99.90
60723;DHT22;46574;52.818;6.516;2022-12-29T15:51:30;9.10;99.90
60723;DHT22;46574;52.818;6.516;2022-12-29T15:53:58;9.10;99.90
60723;DHT22;46574;52.818;6.516;2022-12-29T15:56:27;9.10;99.90
60723;DHT22;46574;52.818;6.516;2022-12-29T15:58:53;9.10;99.90
60723;DHT22;46574;52.818;6.516;2022-12-29T16:01:33;9.00;99.90
60723;DHT22;46574;52.818;6.516;2022-12-29T16:04:01;9.10;99.90
60723;DHT22;46574;52.818;6.516;2022-12-29T16:06:34;9.20;99.90
60723;DHT22;46574;52.818;6.516;2022-12-29T16:11:36;9.10;99.90
60723;DHT22;46574;52.818;6.516;2022-12-29T16:14:06;9.10;99.90
60723;DHT22;46574;52.818;6.516;2022-12-29T16:16:36;9.00;99.90
60723;DHT22;46574;52.818;6.516;2022-12-29T16:19:17;9.00;99.90
60723;DHT22;46574;52.818;6.516;2022-12-29T16:21:44;9.00;99.90
60723;DHT22;46574;52.818;6.516;2022-12-29T16:24:16;9.00;99.90
60723;DHT22;46574;52.818;6.516;2022-12-29T16:26:54;9.00;99.90
60723;DHT22;46574;52.818;6.516;2022-12-29T16:29:21;9.00;99.90
60723;DHT22;46574;52.818;6.516;2022-12-29T16:31:55;9.00;99.90
60723;DHT22;46574;52.818;6.516;2022-12-29T16:34:29;9.00;99.90
60723;DHT22;46574;52.818;6.516;2022-12-29T16:39:36;8.90;99.90
60723;DHT22;46574;52.818;6.516;2022-12-29T16:42:34;8.90;99.90
60723;DHT22;46574;52.818;6.516;2022-12-29T16:50:42;8.90;99.90
60723;DHT22;46574;52.818;6.516;2022-12-29T16:55:47;8.90;99.90
60723;DHT22;46574;52.818;6.516;2022-12-29T16:58:18;8.90;99.90
60723;DHT22;46574;52.818;6.516;2022-12-29T17:00:46;8.90;99.90
60723;DHT22;46574;52.818;6.516;2022-12-29T17:03:13;8.80;99.90
60723;DHT22;46574;52.818;6.516;2022-12-29T17:05:39;8.80;99.90
60723;DHT22;46574;52.818;6.516;2022-12-29T17:08:17;8.40;99.90
60723;DHT22;46574;52.818;6.516;2022-12-29T17:10:49;8.30;99.90
60723;DHT22;46574;52.818;6.516;2022-12-29T17:13:36;8.20;99.90
60723;DHT22;46574;52.818;6.516;2022-12-29T17:16:02;8.10;99.90
60723;DHT22;46574;52.818;6.516;2022-12-29T17:18:28;7.90;99.90
60723;DHT22;46574;52.818;6.516;2022-12-29T17:20:53;7.80;99.90
60723;DHT22;46574;52.818;6.516;2022-12-29T17:23:19;7.80;99.90
60723;DHT22;46574;52.818;6.516;2022-12-29T17:25:45;7.90;99.90
60723;DHT22;46574;52.818;6.516;2022-12-29T17:28:21;8.00;99.90
60723;DHT22;46574;52.818;6.516;2022-12-29T17:30:48;8.00;99.90
60723;DHT22;46574;52.818;6.516;2022-12-29T17:33:16;8.10;99.90
60723;DHT22;46574;52.818;6.516;2022-12-29T17:35:43;8.20;99.90
60723;DHT22;46574;52.818;6.516;2022-12-29T17:41:15;8.20;99.90
60723;DHT22;46574;52.818;6.516;2022-12-29T17:43:41;8.30;99.90
60723;DHT22;46574;52.818;6.516;2022-12-29T17:46:06;8.20;99.90
60723;DHT22;46574;52.818;6.516;2022-12-29T17:48:33;8.20;99.90
60723;DHT22;46574;52.818;6.516;2022-12-29T17:50:59;8.20;99.90
60723;DHT22;46574;52.818;6.516;2022-12-29T17:53:27;8.20;99.90
60723;DHT22;46574;52.818;6.516;2022-12-29T17:55:53;8.30;99.90
60723;DHT22;46574;52.818;6.516;2022-12-29T17:58:23;8.30;99.90
60723;DHT22;46574;52.818;6.516;2022-12-29T18:00:52;8.30;99.90
60723;DHT22;46574;52.818;6.516;2022-12-29T18:03:34;8.40;99.90
60723;DHT22;46574;52.818;6.516;2022-12-29T18:06:01;8.40;99.90
60723;DHT22;46574;52.818;6.516;2022-12-29T18:08:28;8.40;99.90
60723;DHT22;46574;52.818;6.516;2022-12-29T18:10:55;8.40;99.90
60723;DHT22;46574;52.818;6.516;2022-12-29T18:13:26;8.40;99.90
60723;DHT22;46574;52.818;6.516;2022-12-29T18:15:54;8.40;99.90
60723;DHT22;46574;52.818;6.516;2022-12-29T18:18:22;8.30;99.90
60723;DHT22;46574;52.818;6.516;2022-12-29T18:20:49;8.20;99.90
60723;DHT22;46574;52.818;6.516;2022-12-29T18:23:22;8.20;99.90
60723;DHT22;46574;52.818;6.516;2022-12-29T18:25:54;8.30;99.90
60723;DHT22;46574;52.818;6.516;2022-12-29T18:28:21;8.30;99.90
60723;DHT22;46574;52.818;6.516;2022-12-29T18:30:48;8.30;99.90
60723;DHT22;46574;52.818;6.516;2022-12-29T18:33:15;8.40;99.90
60723;DHT22;46574;52.818;6.516;2022-12-29T18:35:45;8.40;99.90
60723;DHT22;46574;52.818;6.516;2022-12-29T18:38:12;8.40;99.90